Palanca Rio — V7QS4 — position and weather

sailwx.info

Track history (hours):
 
Tides and Currents Weather Stations Pressure Air Temp Water Temp Dewpoint Dewpoint Depression Visibility Wind Speed Wind Dir Waves Ship Positions

Palanca Rio

Last reported at 2018-Apr-18 02:50 UTC. Time now 2018-Apr-22 02:58 UTC.
Position N 41°34' W 071°19'.

Length 133 m; draft 7.5 m.

Type: Ship. MMSI: 538006907.

Date/timePositionNaut miles runAvg speedWind from/ knotsBaromVisibWave heightAir tempDewpointWater temp
2018-Apr-18 02:50N 41°34' W 071°19'411.9
2018-Apr-18 02:30N 41°37' W 071°18'611.7
2018-Apr-18 02:00N 41°43' W 071°21'5 9.5
2018-Apr-18 01:30N 41°47' W 071°23'2 0.1
2018-Apr-17 10:32N 41°49' W 071°24'0 0.8
2018-Apr-17 10:30N 41°49' W 071°24'1 2.2
2018-Apr-17 10:00N 41°48' W 071°23'3 6.1
2018-Apr-17 09:30N 41°45' W 071°22'510.9
2018-Apr-17 09:00N 41°40' W 071°19'611.8
2018-Apr-17 08:30N 41°34' W 071°19'48 2.6
2018-Apr-16 13:52N 42°05' W 070°29'3 7.1
2018-Apr-16 13:28N 42°07' W 070°31'4 9.3
2018-Apr-16 13:00N 42°11' W 070°27'5 9.9
2018-Apr-16 12:30N 42°14' W 070°23'5 9.1
2018-Apr-16 11:59N 42°18' W 070°19'5 9.3
2018-Apr-16 11:30N 42°22' W 070°16'510.1
2018-Apr-16 11:00N 42°25' W 070°11'5 9.9
2018-Apr-16 10:30N 42°28' W 070°06'611.6
2018-Apr-16 10:00N 42°32' W 069°59'712.3
2018-Apr-16 09:24N 42°37' W 069°51'  
2018-Apr-13 17:25N 43°02' W 070°18'512.7
2018-Apr-13 17:00N 43°02' W 070°25'613.1
2018-Apr-13 16:30N 43°02' W 070°34'611.9
2018-Apr-13 16:00N 43°03' W 070°42'6 0.2
2018-Apr-12 09:03N 43°07' W 070°48'0 0.1
2018-Apr-12 08:59N 43°07' W 070°48'2 3.7
2018-Apr-12 08:30N 43°06' W 070°46'4 5.7
2018-Apr-12 07:52N 43°03' W 070°42'2 5.5
2018-Apr-12 07:30N 43°02' W 070°40'3 6.0
2018-Apr-12 07:00N 43°02' W 070°36'5 9.9
2018-Apr-12 06:30N 43°03' W 070°29'810.4
2018-Apr-12 05:45N 43°04' W 070°19'310.9
2018-Apr-12 05:31N 43°05' W 070°15'  
2018-Apr-08 20:21N 43°02' W 070°17'512.9
2018-Apr-08 20:00N 43°02' W 070°23'712.7
2018-Apr-08 19:29N 43°02' W 070°32'  
Track history (hours):
 
Tides and Currents Weather Stations Pressure Air Temp Water Temp Dewpoint Dewpoint Depression Visibility Wind Speed Wind Dir Waves Ship Positions

Palanca Rio

Last reported at 2018-Apr-18 02:50 UTC. Time now 2018-Apr-22 02:58 UTC.
Position N 41°34' W 071°19'.

Length 133 m; draft 7.5 m.

Type: Ship. MMSI: 538006907.

Date/timePositionNaut miles runAvg speedWind from/ knotsBaromVisibWave heightAir tempDewpointWater temp
2018-Apr-18 02:50N 41°34' W 071°19'411.9
2018-Apr-18 02:30N 41°37' W 071°18'611.7
2018-Apr-18 02:00N 41°43' W 071°21'5 9.5
2018-Apr-18 01:30N 41°47' W 071°23'2 0.1
2018-Apr-17 10:32N 41°49' W 071°24'0 0.8
2018-Apr-17 10:30N 41°49' W 071°24'1 2.2
2018-Apr-17 10:00N 41°48' W 071°23'3 6.1
2018-Apr-17 09:30N 41°45' W 071°22'510.9
2018-Apr-17 09:00N 41°40' W 071°19'611.8
2018-Apr-17 08:30N 41°34' W 071°19'48 2.6
2018-Apr-16 13:52N 42°05' W 070°29'3 7.1
2018-Apr-16 13:28N 42°07' W 070°31'4 9.3
2018-Apr-16 13:00N 42°11' W 070°27'5 9.9
2018-Apr-16 12:30N 42°14' W 070°23'5 9.1
2018-Apr-16 11:59N 42°18' W 070°19'5 9.3
2018-Apr-16 11:30N 42°22' W 070°16'510.1
2018-Apr-16 11:00N 42°25' W 070°11'5 9.9
2018-Apr-16 10:30N 42°28' W 070°06'611.6
2018-Apr-16 10:00N 42°32' W 069°59'712.3
2018-Apr-16 09:24N 42°37' W 069°51'  
2018-Apr-13 17:25N 43°02' W 070°18'512.7
2018-Apr-13 17:00N 43°02' W 070°25'613.1
2018-Apr-13 16:30N 43°02' W 070°34'611.9
2018-Apr-13 16:00N 43°03' W 070°42'6 0.2
2018-Apr-12 09:03N 43°07' W 070°48'0 0.1
2018-Apr-12 08:59N 43°07' W 070°48'2 3.7
2018-Apr-12 08:30N 43°06' W 070°46'4 5.7
2018-Apr-12 07:52N 43°03' W 070°42'2 5.5
2018-Apr-12 07:30N 43°02' W 070°40'3 6.0
2018-Apr-12 07:00N 43°02' W 070°36'5 9.9
2018-Apr-12 06:30N 43°03' W 070°29'810.4
2018-Apr-12 05:45N 43°04' W 070°19'310.9
2018-Apr-12 05:31N 43°05' W 070°15'  
2018-Apr-08 20:21N 43°02' W 070°17'512.9
2018-Apr-08 20:00N 43°02' W 070°23'712.7
2018-Apr-08 19:29N 43°02' W 070°32'  

Dump ship's entire track history